sensor_id;sensor_type;location;lat;lon;timestamp;P1;durP1;ratioP1;P2;durP2;ratioP2
2724;SDS011;1370;52.596;13.112;2023-01-28T00:00:47;19.53;;;9.60;;
2724;SDS011;1370;52.596;13.112;2023-01-28T00:03:12;12.67;;;7.10;;
2724;SDS011;1370;52.596;13.112;2023-01-28T00:05:37;13.13;;;7.77;;
2724;SDS011;1370;52.596;13.112;2023-01-28T00:08:03;16.13;;;7.10;;
2724;SDS011;1370;52.596;13.112;2023-01-28T00:10:28;13.17;;;7.60;;
2724;SDS011;1370;52.596;13.112;2023-01-28T00:12:53;5.73;;;4.93;;
2724;SDS011;1370;52.596;13.112;2023-01-28T00:15:19;5.97;;;4.40;;
2724;SDS011;1370;52.596;13.112;2023-01-28T00:17:44;5.70;;;4.60;;
2724;SDS011;1370;52.596;13.112;2023-01-28T00:20:09;8.80;;;5.57;;
2724;SDS011;1370;52.596;13.112;2023-01-28T00:22:35;4.33;;;3.93;;
2724;SDS011;1370;52.596;13.112;2023-01-28T00:25:00;7.30;;;5.03;;
2724;SDS011;1370;52.596;13.112;2023-01-28T00:27:25;6.10;;;3.40;;
2724;SDS011;1370;52.596;13.112;2023-01-28T00:29:51;5.93;;;4.13;;
2724;SDS011;1370;52.596;13.112;2023-01-28T00:32:17;4.03;;;3.63;;
2724;SDS011;1370;52.596;13.112;2023-01-28T00:34:43;3.90;;;3.50;;
2724;SDS011;1370;52.596;13.112;2023-01-28T00:37:08;4.60;;;3.30;;
2724;SDS011;1370;52.596;13.112;2023-01-28T00:39:33;3.07;;;2.87;;
2724;SDS011;1370;52.596;13.112;2023-01-28T00:41:58;3.70;;;3.13;;
2724;SDS011;1370;52.596;13.112;2023-01-28T00:44:24;3.27;;;3.00;;
2724;SDS011;1370;52.596;13.112;2023-01-28T00:46:49;3.17;;;2.90;;
2724;SDS011;1370;52.596;13.112;2023-01-28T00:49:14;3.60;;;2.83;;
2724;SDS011;1370;52.596;13.112;2023-01-28T00:51:40;3.67;;;3.37;;
2724;SDS011;1370;52.596;13.112;2023-01-28T00:54:06;3.50;;;3.20;;
2724;SDS011;1370;52.596;13.112;2023-01-28T00:56:31;4.97;;;3.00;;
2724;SDS011;1370;52.596;13.112;2023-01-28T00:58:56;5.70;;;3.40;;
2724;SDS011;1370;52.596;13.112;2023-01-28T01:01:23;4.90;;;3.60;;
2724;SDS011;1370;52.596;13.112;2023-01-28T01:03:49;9.23;;;3.33;;
2724;SDS011;1370;52.596;13.112;2023-01-28T01:06:21;3.47;;;3.17;;
2724;SDS011;1370;52.596;13.112;2023-01-28T01:08:47;3.85;;;3.13;;
2724;SDS011;1370;52.596;13.112;2023-01-28T01:11:14;3.83;;;3.20;;
2724;SDS011;1370;52.596;13.112;2023-01-28T01:13:39;3.10;;;2.80;;
2724;SDS011;1370;52.596;13.112;2023-01-28T01:16:14;4.70;;;3.33;;
2724;SDS011;1370;52.596;13.112;2023-01-28T01:18:40;2.57;;;2.37;;
2724;SDS011;1370;52.596;13.112;2023-01-28T01:21:07;8.57;;;2.90;;
2724;SDS011;1370;52.596;13.112;2023-01-28T01:23:33;3.53;;;2.27;;
2724;SDS011;1370;52.596;13.112;2023-01-28T01:25:58;4.10;;;2.60;;
2724;SDS011;1370;52.596;13.112;2023-01-28T01:28:23;3.53;;;3.23;;
2724;SDS011;1370;52.596;13.112;2023-01-28T01:30:49;4.47;;;2.50;;
2724;SDS011;1370;52.596;13.112;2023-01-28T01:33:14;3.27;;;2.60;;
2724;SDS011;1370;52.596;13.112;2023-01-28T01:35:40;3.23;;;2.93;;
2724;SDS011;1370;52.596;13.112;2023-01-28T01:38:06;6.57;;;3.30;;
2724;SDS011;1370;52.596;13.112;2023-01-28T01:40:31;3.97;;;3.20;;
2724;SDS011;1370;52.596;13.112;2023-01-28T01:42:57;7.13;;;2.47;;
2724;SDS011;1370;52.596;13.112;2023-01-28T01:45:22;4.03;;;3.10;;
2724;SDS011;1370;52.596;13.112;2023-01-28T01:48:04;3.40;;;3.10;;
2724;SDS011;1370;52.596;13.112;2023-01-28T01:50:32;4.90;;;2.80;;
2724;SDS011;1370;52.596;13.112;2023-01-28T01:53:07;3.07;;;2.87;;
2724;SDS011;1370;52.596;13.112;2023-01-28T01:55:34;4.07;;;3.60;;
2724;SDS011;1370;52.596;13.112;2023-01-28T01:58:03;5.77;;;2.50;;
2724;SDS011;1370;52.596;13.112;2023-01-28T02:00:32;5.93;;;3.20;;
2724;SDS011;1370;52.596;13.112;2023-01-28T02:02:57;3.07;;;2.83;;
2724;SDS011;1370;52.596;13.112;2023-01-28T02:05:23;3.37;;;3.07;;
2724;SDS011;1370;52.596;13.112;2023-01-28T02:07:50;3.00;;;2.53;;
2724;SDS011;1370;52.596;13.112;2023-01-28T02:10:18;3.00;;;2.37;;
2724;SDS011;1370;52.596;13.112;2023-01-28T02:12:46;3.57;;;3.27;;
2724;SDS011;1370;52.596;13.112;2023-01-28T02:15:16;3.07;;;2.87;;
2724;SDS011;1370;52.596;13.112;2023-01-28T02:17:44;5.27;;;3.17;;
2724;SDS011;1370;52.596;13.112;2023-01-28T02:20:10;4.33;;;2.60;;
2724;SDS011;1370;52.596;13.112;2023-01-28T02:25:36;9.40;;;3.20;;
2724;SDS011;1370;52.596;13.112;2023-01-28T02:28:20;4.03;;;3.20;;
2724;SDS011;1370;52.596;13.112;2023-01-28T02:30:54;2.50;;;2.30;;
2724;SDS011;1370;52.596;13.112;2023-01-28T02:33:28;4.10;;;2.60;;
2724;SDS011;1370;52.596;13.112;2023-01-28T02:35:59;7.70;;;3.30;;
2724;SDS011;1370;52.596;13.112;2023-01-28T02:38:31;4.23;;;2.87;;
2724;SDS011;1370;52.596;13.112;2023-01-28T02:41:01;3.23;;;2.93;;
2724;SDS011;1370;52.596;13.112;2023-01-28T02:43:34;2.90;;;2.70;;
2724;SDS011;1370;52.596;13.112;2023-01-28T02:49:17;2.90;;;2.70;;
2724;SDS011;1370;52.596;13.112;2023-01-28T02:55:16;6.17;;;3.00;;
2724;SDS011;1370;52.596;13.112;2023-01-28T02:58:06;3.23;;;2.93;;
2724;SDS011;1370;52.596;13.112;2023-01-28T03:01:01;4.13;;;3.40;;
2724;SDS011;1370;52.596;13.112;2023-01-28T03:03:27;5.20;;;3.43;;
2724;SDS011;1370;52.596;13.112;2023-01-28T03:06:00;5.30;;;3.73;;
2724;SDS011;1370;52.596;13.112;2023-01-28T03:08:30;5.50;;;3.83;;
2724;SDS011;1370;52.596;13.112;2023-01-28T03:11:15;4.90;;;3.17;;
2724;SDS011;1370;52.596;13.112;2023-01-28T03:14:00;4.73;;;3.53;;
2724;SDS011;1370;52.596;13.112;2023-01-28T03:16:44;3.93;;;3.10;;
2724;SDS011;1370;52.596;13.112;2023-01-28T03:19:28;4.30;;;4.00;;
2724;SDS011;1370;52.596;13.112;2023-01-28T03:22:12;4.17;;;2.60;;
2724;SDS011;1370;52.596;13.112;2023-01-28T03:24:56;3.30;;;2.93;;
2724;SDS011;1370;52.596;13.112;2023-01-28T03:30:36;3.60;;;3.30;;
2724;SDS011;1370;52.596;13.112;2023-01-28T03:33:28;3.23;;;2.67;;
2724;SDS011;1370;52.596;13.112;2023-01-28T03:36:13;4.57;;;3.53;;
2724;SDS011;1370;52.596;13.112;2023-01-28T03:38:56;3.80;;;3.00;;
2724;SDS011;1370;52.596;13.112;2023-01-28T03:41:23;4.63;;;2.73;;
2724;SDS011;1370;52.596;13.112;2023-01-28T03:43:49;3.43;;;3.13;;
2724;SDS011;1370;52.596;13.112;2023-01-28T03:46:15;3.70;;;2.73;;
2724;SDS011;1370;52.596;13.112;2023-01-28T03:48:40;3.40;;;2.83;;
2724;SDS011;1370;52.596;13.112;2023-01-28T03:51:06;2.80;;;2.60;;
2724;SDS011;1370;52.596;13.112;2023-01-28T03:53:31;2.83;;;2.63;;
2724;SDS011;1370;52.596;13.112;2023-01-28T03:55:56;3.20;;;2.90;;
2724;SDS011;1370;52.596;13.112;2023-01-28T03:58:22;4.03;;;3.27;;
2724;SDS011;1370;52.596;13.112;2023-01-28T04:00:51;5.13;;;3.10;;
2724;SDS011;1370;52.596;13.112;2023-01-28T04:03:20;13.20;;;4.37;;
2724;SDS011;1370;52.596;13.112;2023-01-28T04:05:46;3.63;;;2.73;;
2724;SDS011;1370;52.596;13.112;2023-01-28T04:08:22;3.50;;;3.00;;
2724;SDS011;1370;52.596;13.112;2023-01-28T04:10:48;3.73;;;3.43;;
2724;SDS011;1370;52.596;13.112;2023-01-28T04:13:14;3.23;;;3.03;;
2724;SDS011;1370;52.596;13.112;2023-01-28T04:15:39;4.77;;;2.97;;
2724;SDS011;1370;52.596;13.112;2023-01-28T04:18:07;3.13;;;2.90;;
2724;SDS011;1370;52.596;13.112;2023-01-28T04:20:32;2.80;;;2.70;;
2724;SDS011;1370;52.596;13.112;2023-01-28T04:22:57;3.13;;;2.80;;
2724;SDS011;1370;52.596;13.112;2023-01-28T04:25:22;6.13;;;4.10;;
2724;SDS011;1370;52.596;13.112;2023-01-28T04:27:48;4.10;;;3.70;;
2724;SDS011;1370;52.596;13.112;2023-01-28T04:30:13;2.80;;;2.60;;
2724;SDS011;1370;52.596;13.112;2023-01-28T04:32:38;3.40;;;3.20;;
2724;SDS011;1370;52.596;13.112;2023-01-28T04:35:04;3.60;;;3.30;;
2724;SDS011;1370;52.596;13.112;2023-01-28T04:37:29;6.17;;;4.20;;
2724;SDS011;1370;52.596;13.112;2023-01-28T04:39:55;4.03;;;3.60;;
2724;SDS011;1370;52.596;13.112;2023-01-28T04:42:20;16.20;;;10.20;;
2724;SDS011;1370;52.596;13.112;2023-01-28T04:44:45;15.97;;;10.30;;
2724;SDS011;1370;52.596;13.112;2023-01-28T04:47:10;12.23;;;8.10;;
2724;SDS011;1370;52.596;13.112;2023-01-28T04:49:36;10.90;;;8.37;;
2724;SDS011;1370;52.596;13.112;2023-01-28T04:52:01;14.20;;;8.50;;
2724;SDS011;1370;52.596;13.112;2023-01-28T04:54:26;11.00;;;9.10;;
2724;SDS011;1370;52.596;13.112;2023-01-28T04:56:51;16.73;;;10.50;;
2724;SDS011;1370;52.596;13.112;2023-01-28T04:59:17;13.57;;;9.93;;
2724;SDS011;1370;52.596;13.112;2023-01-28T05:01:43;13.97;;;9.40;;
2724;SDS011;1370;52.596;13.112;2023-01-28T05:04:09;17.13;;;9.80;;
2724;SDS011;1370;52.596;13.112;2023-01-28T05:06:34;15.90;;;10.57;;
2724;SDS011;1370;52.596;13.112;2023-01-28T05:08:59;13.10;;;9.40;;
2724;SDS011;1370;52.596;13.112;2023-01-28T05:11:24;20.57;;;10.97;;
2724;SDS011;1370;52.596;13.112;2023-01-28T05:13:50;15.93;;;9.00;;
2724;SDS011;1370;52.596;13.112;2023-01-28T05:16:15;10.50;;;7.90;;
2724;SDS011;1370;52.596;13.112;2023-01-28T05:18:40;12.70;;;8.93;;
2724;SDS011;1370;52.596;13.112;2023-01-28T05:21:06;18.10;;;10.40;;
2724;SDS011;1370;52.596;13.112;2023-01-28T05:23:31;13.43;;;9.27;;
2724;SDS011;1370;52.596;13.112;2023-01-28T05:25:56;10.60;;;8.67;;
2724;SDS011;1370;52.596;13.112;2023-01-28T05:28:22;12.83;;;8.20;;
2724;SDS011;1370;52.596;13.112;2023-01-28T05:30:47;9.50;;;8.37;;
2724;SDS011;1370;52.596;13.112;2023-01-28T05:33:12;14.70;;;8.67;;
2724;SDS011;1370;52.596;13.112;2023-01-28T05:35:37;10.97;;;8.17;;
2724;SDS011;1370;52.596;13.112;2023-01-28T05:38:03;13.07;;;7.10;;
2724;SDS011;1370;52.596;13.112;2023-01-28T05:40:28;6.80;;;5.90;;
2724;SDS011;1370;52.596;13.112;2023-01-28T05:42:54;6.73;;;6.13;;
2724;SDS011;1370;52.596;13.112;2023-01-28T05:45:19;5.77;;;5.10;;
2724;SDS011;1370;52.596;13.112;2023-01-28T05:47:44;7.13;;;6.07;;
2724;SDS011;1370;52.596;13.112;2023-01-28T05:50:10;6.10;;;5.53;;
2724;SDS011;1370;52.596;13.112;2023-01-28T05:52:37;7.90;;;6.10;;
2724;SDS011;1370;52.596;13.112;2023-01-28T05:55:02;9.10;;;5.50;;
2724;SDS011;1370;52.596;13.112;2023-01-28T05:57:28;7.00;;;6.07;;
2724;SDS011;1370;52.596;13.112;2023-01-28T05:59:53;7.80;;;6.87;;
2724;SDS011;1370;52.596;13.112;2023-01-28T06:02:18;9.53;;;7.67;;
2724;SDS011;1370;52.596;13.112;2023-01-28T06:04:44;11.37;;;7.13;;
2724;SDS011;1370;52.596;13.112;2023-01-28T06:07:09;9.00;;;6.17;;
2724;SDS011;1370;52.596;13.112;2023-01-28T06:09:37;8.27;;;6.63;;
2724;SDS011;1370;52.596;13.112;2023-01-28T06:12:02;6.23;;;4.63;;
2724;SDS011;1370;52.596;13.112;2023-01-28T06:14:27;10.47;;;5.10;;
2724;SDS011;1370;52.596;13.112;2023-01-28T06:16:53;8.70;;;5.33;;
2724;SDS011;1370;52.596;13.112;2023-01-28T06:19:18;6.10;;;5.50;;
2724;SDS011;1370;52.596;13.112;2023-01-28T06:21:43;9.50;;;5.80;;
2724;SDS011;1370;52.596;13.112;2023-01-28T06:24:08;7.20;;;6.50;;
2724;SDS011;1370;52.596;13.112;2023-01-28T06:26:34;7.93;;;5.70;;
2724;SDS011;1370;52.596;13.112;2023-01-28T06:28:59;8.10;;;5.57;;
2724;SDS011;1370;52.596;13.112;2023-01-28T06:31:24;7.40;;;6.57;;
2724;SDS011;1370;52.596;13.112;2023-01-28T06:33:50;8.53;;;7.47;;
2724;SDS011;1370;52.596;13.112;2023-01-28T06:36:15;10.97;;;7.50;;
2724;SDS011;1370;52.596;13.112;2023-01-28T06:38:40;11.70;;;8.23;;
2724;SDS011;1370;52.596;13.112;2023-01-28T06:41:06;12.20;;;6.80;;
2724;SDS011;1370;52.596;13.112;2023-01-28T06:43:31;9.93;;;6.17;;
2724;SDS011;1370;52.596;13.112;2023-01-28T06:45:57;9.30;;;5.90;;
2724;SDS011;1370;52.596;13.112;2023-01-28T06:48:22;5.27;;;4.87;;
2724;SDS011;1370;52.596;13.112;2023-01-28T06:50:48;5.40;;;4.90;;
2724;SDS011;1370;52.596;13.112;2023-01-28T06:53:14;7.30;;;5.57;;
2724;SDS011;1370;52.596;13.112;2023-01-28T06:55:39;9.80;;;6.10;;
2724;SDS011;1370;52.596;13.112;2023-01-28T06:58:05;6.73;;;5.00;;
2724;SDS011;1370;52.596;13.112;2023-01-28T07:00:30;7.23;;;5.50;;
2724;SDS011;1370;52.596;13.112;2023-01-28T07:02:55;5.63;;;4.93;;
2724;SDS011;1370;52.596;13.112;2023-01-28T07:05:21;9.73;;;5.33;;
2724;SDS011;1370;52.596;13.112;2023-01-28T07:07:46;10.53;;;5.47;;
2724;SDS011;1370;52.596;13.112;2023-01-28T07:10:12;4.73;;;4.13;;
2724;SDS011;1370;52.596;13.112;2023-01-28T07:12:37;6.43;;;5.17;;
2724;SDS011;1370;52.596;13.112;2023-01-28T07:15:02;7.67;;;4.87;;
2724;SDS011;1370;52.596;13.112;2023-01-28T07:17:28;8.70;;;5.60;;
2724;SDS011;1370;52.596;13.112;2023-01-28T07:19:53;6.73;;;5.07;;
2724;SDS011;1370;52.596;13.112;2023-01-28T07:22:19;8.70;;;5.33;;
2724;SDS011;1370;52.596;13.112;2023-01-28T07:24:44;5.10;;;4.60;;
2724;SDS011;1370;52.596;13.112;2023-01-28T07:27:09;6.77;;;4.60;;
2724;SDS011;1370;52.596;13.112;2023-01-28T07:29:34;6.57;;;4.77;;
2724;SDS011;1370;52.596;13.112;2023-01-28T07:32:00;5.43;;;5.00;;
2724;SDS011;1370;52.596;13.112;2023-01-28T07:34:25;7.67;;;4.80;;
2724;SDS011;1370;52.596;13.112;2023-01-28T07:36:51;10.80;;;5.00;;
2724;SDS011;1370;52.596;13.112;2023-01-28T07:39:16;14.73;;;5.33;;
2724;SDS011;1370;52.596;13.112;2023-01-28T07:41:41;5.63;;;4.60;;
2724;SDS011;1370;52.596;13.112;2023-01-28T07:44:07;9.63;;;5.80;;
2724;SDS011;1370;52.596;13.112;2023-01-28T07:46:32;8.80;;;7.07;;
2724;SDS011;1370;52.596;13.112;2023-01-28T07:48:58;12.23;;;9.23;;
2724;SDS011;1370;52.596;13.112;2023-01-28T07:51:23;8.30;;;7.50;;
2724;SDS011;1370;52.596;13.112;2023-01-28T07:53:48;6.53;;;5.77;;
2724;SDS011;1370;52.596;13.112;2023-01-28T07:56:14;5.57;;;5.07;;
2724;SDS011;1370;52.596;13.112;2023-01-28T07:58:39;6.00;;;5.40;;
2724;SDS011;1370;52.596;13.112;2023-01-28T08:01:04;5.40;;;4.90;;
2724;SDS011;1370;52.596;13.112;2023-01-28T08:03:29;6.37;;;5.20;;
2724;SDS011;1370;52.596;13.112;2023-01-28T08:05:55;7.97;;;4.97;;
2724;SDS011;1370;52.596;13.112;2023-01-28T08:08:21;5.10;;;4.60;;
2724;SDS011;1370;52.596;13.112;2023-01-28T08:10:47;6.70;;;6.07;;
2724;SDS011;1370;52.596;13.112;2023-01-28T08:13:13;8.20;;;6.50;;
2724;SDS011;1370;52.596;13.112;2023-01-28T08:15:39;8.30;;;6.43;;
2724;SDS011;1370;52.596;13.112;2023-01-28T08:18:06;7.73;;;6.73;;
2724;SDS011;1370;52.596;13.112;2023-01-28T08:20:31;9.50;;;6.50;;
2724;SDS011;1370;52.596;13.112;2023-01-28T08:23:13;7.83;;;6.67;;
2724;SDS011;1370;52.596;13.112;2023-01-28T08:25:41;9.83;;;6.20;;
2724;SDS011;1370;52.596;13.112;2023-01-28T08:28:06;7.87;;;7.17;;
2724;SDS011;1370;52.596;13.112;2023-01-28T08:30:33;12.63;;;7.83;;
2724;SDS011;1370;52.596;13.112;2023-01-28T08:32:59;10.00;;;5.83;;
2724;SDS011;1370;52.596;13.112;2023-01-28T08:35:25;7.17;;;6.50;;
2724;SDS011;1370;52.596;13.112;2023-01-28T08:37:51;8.10;;;6.73;;
2724;SDS011;1370;52.596;13.112;2023-01-28T08:40:17;7.77;;;6.70;;
2724;SDS011;1370;52.596;13.112;2023-01-28T08:42:46;8.83;;;6.90;;
2724;SDS011;1370;52.596;13.112;2023-01-28T08:45:15;7.50;;;6.90;;
2724;SDS011;1370;52.596;13.112;2023-01-28T08:47:51;7.53;;;6.03;;
2724;SDS011;1370;52.596;13.112;2023-01-28T08:50:18;13.63;;;7.47;;
2724;SDS011;1370;52.596;13.112;2023-01-28T08:52:44;6.50;;;5.90;;
2724;SDS011;1370;52.596;13.112;2023-01-28T08:55:10;4.50;;;4.10;;
2724;SDS011;1370;52.596;13.112;2023-01-28T08:57:36;6.27;;;4.70;;
2724;SDS011;1370;52.596;13.112;2023-01-28T09:00:01;8.10;;;4.37;;
2724;SDS011;1370;52.596;13.112;2023-01-28T09:02:28;4.07;;;3.73;;
2724;SDS011;1370;52.596;13.112;2023-01-28T09:04:53;6.63;;;3.80;;
2724;SDS011;1370;52.596;13.112;2023-01-28T09:07:18;7.47;;;4.73;;
2724;SDS011;1370;52.596;13.112;2023-01-28T09:09:44;6.90;;;3.80;;
2724;SDS011;1370;52.596;13.112;2023-01-28T09:12:09;10.13;;;5.20;;
2724;SDS011;1370;52.596;13.112;2023-01-28T09:14:35;5.50;;;5.10;;
2724;SDS011;1370;52.596;13.112;2023-01-28T09:17:00;8.40;;;6.87;;
2724;SDS011;1370;52.596;13.112;2023-01-28T09:19:26;7.20;;;6.53;;
2724;SDS011;1370;52.596;13.112;2023-01-28T09:21:51;11.90;;;8.47;;
2724;SDS011;1370;52.596;13.112;2023-01-28T09:24:16;7.87;;;5.80;;
2724;SDS011;1370;52.596;13.112;2023-01-28T09:26:42;5.73;;;5.03;;
2724;SDS011;1370;52.596;13.112;2023-01-28T09:29:08;6.43;;;4.30;;
2724;SDS011;1370;52.596;13.112;2023-01-28T09:31:33;3.70;;;3.40;;
2724;SDS011;1370;52.596;13.112;2023-01-28T09:33:59;3.13;;;2.83;;
2724;SDS011;1370;52.596;13.112;2023-01-28T09:36:24;4.83;;;4.43;;
2724;SDS011;1370;52.596;13.112;2023-01-28T09:38:49;3.90;;;3.60;;
2724;SDS011;1370;52.596;13.112;2023-01-28T09:41:22;6.40;;;3.60;;
2724;SDS011;1370;52.596;13.112;2023-01-28T09:46:33;4.03;;;2.80;;
2724;SDS011;1370;52.596;13.112;2023-01-28T09:49:01;4.80;;;3.60;;
2724;SDS011;1370;52.596;13.112;2023-01-28T09:51:39;3.03;;;2.60;;
2724;SDS011;1370;52.596;13.112;2023-01-28T09:54:53;2.70;;;2.50;;
2724;SDS011;1370;52.596;13.112;2023-01-28T09:56:53;2.70;;;2.30;;
2724;SDS011;1370;52.596;13.112;2023-01-28T09:59:23;3.43;;;2.17;;
2724;SDS011;1370;52.596;13.112;2023-01-28T10:02:25;2.83;;;2.20;;
2724;SDS011;1370;52.596;13.112;2023-01-28T10:07:45;2.07;;;1.93;;
2724;SDS011;1370;52.596;13.112;2023-01-28T10:10:34;2.60;;;2.40;;
2724;SDS011;1370;52.596;13.112;2023-01-28T10:13:22;3.07;;;1.87;;
2724;SDS011;1370;52.596;13.112;2023-01-28T10:18:45;1.90;;;1.57;;
2724;SDS011;1370;52.596;13.112;2023-01-28T10:21:19;5.20;;;2.40;;
2724;SDS011;1370;52.596;13.112;2023-01-28T10:23:51;2.40;;;2.20;;
2724;SDS011;1370;52.596;13.112;2023-01-28T10:26:32;1.80;;;1.50;;
2724;SDS011;1370;52.596;13.112;2023-01-28T10:29:02;2.10;;;1.83;;
2724;SDS011;1370;52.596;13.112;2023-01-28T10:31:52;4.23;;;2.33;;
2724;SDS011;1370;52.596;13.112;2023-01-28T10:34:20;3.20;;;1.97;;
2724;SDS011;1370;52.596;13.112;2023-01-28T10:36:47;7.40;;;2.40;;
2724;SDS011;1370;52.596;13.112;2023-01-28T10:39:16;4.60;;;3.07;;
2724;SDS011;1370;52.596;13.112;2023-01-28T10:41:43;7.27;;;5.33;;
2724;SDS011;1370;52.596;13.112;2023-01-28T10:44:11;5.00;;;3.90;;
2724;SDS011;1370;52.596;13.112;2023-01-28T10:46:39;7.47;;;4.60;;
2724;SDS011;1370;52.596;13.112;2023-01-28T10:49:13;4.90;;;4.50;;
2724;SDS011;1370;52.596;13.112;2023-01-28T10:51:40;3.83;;;3.53;;
2724;SDS011;1370;52.596;13.112;2023-01-28T10:54:22;2.57;;;2.37;;
2724;SDS011;1370;52.596;13.112;2023-01-28T10:56:56;3.33;;;2.90;;
2724;SDS011;1370;52.596;13.112;2023-01-28T10:59:27;7.20;;;3.13;;
2724;SDS011;1370;52.596;13.112;2023-01-28T11:01:56;4.67;;;3.40;;
2724;SDS011;1370;52.596;13.112;2023-01-28T11:07:14;3.07;;;2.80;;
2724;SDS011;1370;52.596;13.112;2023-01-28T11:09:47;2.37;;;2.17;;
2724;SDS011;1370;52.596;13.112;2023-01-28T11:14:58;3.63;;;2.07;;
2724;SDS011;1370;52.596;13.112;2023-01-28T11:17:25;2.67;;;2.03;;
2724;SDS011;1370;52.596;13.112;2023-01-28T11:19:54;17.90;;;12.60;;
2724;SDS011;1370;52.596;13.112;2023-01-28T11:25:00;4.50;;;4.10;;
2724;SDS011;1370;52.596;13.112;2023-01-28T11:27:28;4.03;;;3.40;;
2724;SDS011;1370;52.596;13.112;2023-01-28T11:29:57;4.80;;;4.37;;
2724;SDS011;1370;52.596;13.112;2023-01-28T11:32:28;14.20;;;9.73;;
2724;SDS011;1370;52.596;13.112;2023-01-28T11:34:54;7.23;;;6.43;;
2724;SDS011;1370;52.596;13.112;2023-01-28T11:37:25;5.67;;;4.20;;
2724;SDS011;1370;52.596;13.112;2023-01-28T11:42:45;5.10;;;3.10;;
2724;SDS011;1370;52.596;13.112;2023-01-28T11:45:16;2.57;;;2.37;;
2724;SDS011;1370;52.596;13.112;2023-01-28T11:50:44;2.63;;;2.43;;
2724;SDS011;1370;52.596;13.112;2023-01-28T11:56:04;3.13;;;2.30;;
2724;SDS011;1370;52.596;13.112;2023-01-28T11:59:14;3.67;;;2.67;;
2724;SDS011;1370;52.596;13.112;2023-01-28T12:10:33;3.30;;;2.53;;
2724;SDS011;1370;52.596;13.112;2023-01-28T12:16:12;3.63;;;1.40;;
2724;SDS011;1370;52.596;13.112;2023-01-28T12:24:26;3.80;;;2.87;;
2724;SDS011;1370;52.596;13.112;2023-01-28T12:27:22;5.03;;;2.20;;
2724;SDS011;1370;52.596;13.112;2023-01-28T12:29:57;1.80;;;1.57;;
2724;SDS011;1370;52.596;13.112;2023-01-28T12:32:57;2.23;;;2.03;;
2724;SDS011;1370;52.596;13.112;2023-01-28T12:35:41;1.90;;;1.70;;
2724;SDS011;1370;52.596;13.112;2023-01-28T12:41:03;2.43;;;1.43;;
2724;SDS011;1370;52.596;13.112;2023-01-28T12:43:36;4.07;;;2.80;;
2724;SDS011;1370;52.596;13.112;2023-01-28T12:46:17;1.60;;;1.30;;
2724;SDS011;1370;52.596;13.112;2023-01-28T12:48:51;2.03;;;1.60;;
2724;SDS011;1370;52.596;13.112;2023-01-28T12:51:35;2.33;;;1.77;;
2724;SDS011;1370;52.596;13.112;2023-01-28T12:54:15;1.80;;;1.70;;
2724;SDS011;1370;52.596;13.112;2023-01-28T12:56:48;1.60;;;1.50;;
2724;SDS011;1370;52.596;13.112;2023-01-28T13:02:00;4.20;;;1.57;;
2724;SDS011;1370;52.596;13.112;2023-01-28T13:04:49;3.17;;;1.40;;
2724;SDS011;1370;52.596;13.112;2023-01-28T13:10:05;3.10;;;1.53;;
2724;SDS011;1370;52.596;13.112;2023-01-28T13:12:38;2.30;;;2.20;;
2724;SDS011;1370;52.596;13.112;2023-01-28T13:15:04;2.60;;;2.40;;
2724;SDS011;1370;52.596;13.112;2023-01-28T13:17:31;3.07;;;1.90;;
2724;SDS011;1370;52.596;13.112;2023-01-28T13:19:59;2.23;;;2.03;;
2724;SDS011;1370;52.596;13.112;2023-01-28T13:22:26;2.10;;;2.00;;
2724;SDS011;1370;52.596;13.112;2023-01-28T13:24:54;2.27;;;1.90;;
2724;SDS011;1370;52.596;13.112;2023-01-28T13:27:24;2.10;;;1.83;;
2724;SDS011;1370;52.596;13.112;2023-01-28T13:30:00;2.83;;;1.83;;
2724;SDS011;1370;52.596;13.112;2023-01-28T13:32:28;1.60;;;1.50;;
2724;SDS011;1370;52.596;13.112;2023-01-28T13:34:57;4.43;;;4.03;;
2724;SDS011;1370;52.596;13.112;2023-01-28T13:37:31;3.93;;;3.60;;
2724;SDS011;1370;52.596;13.112;2023-01-28T13:42:31;2.80;;;1.40;;
2724;SDS011;1370;52.596;13.112;2023-01-28T13:45:21;2.50;;;1.70;;
2724;SDS011;1370;52.596;13.112;2023-01-28T13:47:48;1.50;;;1.30;;
2724;SDS011;1370;52.596;13.112;2023-01-28T13:50:22;3.53;;;1.93;;
2724;SDS011;1370;52.596;13.112;2023-01-28T13:53:01;2.00;;;1.60;;
2724;SDS011;1370;52.596;13.112;2023-01-28T13:55:36;2.10;;;2.00;;
2724;SDS011;1370;52.596;13.112;2023-01-28T13:58:15;2.30;;;1.93;;
2724;SDS011;1370;52.596;13.112;2023-01-28T14:01:12;1.50;;;1.20;;
2724;SDS011;1370;52.596;13.112;2023-01-28T14:04:02;1.60;;;1.40;;
2724;SDS011;1370;52.596;13.112;2023-01-28T14:06:52;2.50;;;2.30;;
2724;SDS011;1370;52.596;13.112;2023-01-28T14:09:26;1.73;;;1.63;;
2724;SDS011;1370;52.596;13.112;2023-01-28T14:12:17;2.00;;;1.90;;
2724;SDS011;1370;52.596;13.112;2023-01-28T14:15:00;1.73;;;1.57;;
2724;SDS011;1370;52.596;13.112;2023-01-28T14:17:42;2.73;;;2.00;;
2724;SDS011;1370;52.596;13.112;2023-01-28T14:20:13;1.93;;;1.20;;
2724;SDS011;1370;52.596;13.112;2023-01-28T14:22:53;2.20;;;1.43;;
2724;SDS011;1370;52.596;13.112;2023-01-28T14:25:28;1.80;;;1.30;;
2724;SDS011;1370;52.596;13.112;2023-01-28T14:27:59;17.33;;;10.50;;
2724;SDS011;1370;52.596;13.112;2023-01-28T14:30:35;7.00;;;4.03;;
2724;SDS011;1370;52.596;13.112;2023-01-28T14:33:08;7.43;;;4.30;;
2724;SDS011;1370;52.596;13.112;2023-01-28T14:35:36;3.40;;;3.20;;
2724;SDS011;1370;52.596;13.112;2023-01-28T14:38:07;1.60;;;1.10;;
2724;SDS011;1370;52.596;13.112;2023-01-28T14:40:34;1.70;;;1.60;;
2724;SDS011;1370;52.596;13.112;2023-01-28T14:43:02;3.97;;;1.97;;
2724;SDS011;1370;52.596;13.112;2023-01-28T14:45:50;9.27;;;1.80;;
2724;SDS011;1370;52.596;13.112;2023-01-28T14:48:25;2.77;;;1.70;;
2724;SDS011;1370;52.596;13.112;2023-01-28T14:53:55;2.63;;;2.20;;
2724;SDS011;1370;52.596;13.112;2023-01-28T14:56:32;6.13;;;3.13;;
2724;SDS011;1370;52.596;13.112;2023-01-28T14:59:15;4.33;;;3.17;;
2724;SDS011;1370;52.596;13.112;2023-01-28T15:01:46;3.03;;;2.80;;
2724;SDS011;1370;52.596;13.112;2023-01-28T15:04:22;5.77;;;3.40;;
2724;SDS011;1370;52.596;13.112;2023-01-28T15:06:49;3.20;;;2.90;;
2724;SDS011;1370;52.596;13.112;2023-01-28T15:09:15;4.30;;;2.57;;
2724;SDS011;1370;52.596;13.112;2023-01-28T15:11:40;3.43;;;2.87;;
2724;SDS011;1370;52.596;13.112;2023-01-28T15:14:41;2.43;;;2.20;;
2724;SDS011;1370;52.596;13.112;2023-01-28T15:17:11;5.37;;;4.93;;
2724;SDS011;1370;52.596;13.112;2023-01-28T15:19:43;16.27;;;8.43;;
2724;SDS011;1370;52.596;13.112;2023-01-28T15:22:12;10.70;;;8.43;;
2724;SDS011;1370;52.596;13.112;2023-01-28T15:24:39;6.40;;;5.90;;
2724;SDS011;1370;52.596;13.112;2023-01-28T15:27:12;2.63;;;2.43;;
2724;SDS011;1370;52.596;13.112;2023-01-28T15:29:39;2.43;;;2.23;;
2724;SDS011;1370;52.596;13.112;2023-01-28T15:32:05;4.00;;;3.37;;
2724;SDS011;1370;52.596;13.112;2023-01-28T15:34:31;2.97;;;2.50;;
2724;SDS011;1370;52.596;13.112;2023-01-28T15:36:59;2.20;;;1.97;;
2724;SDS011;1370;52.596;13.112;2023-01-28T15:39:25;3.20;;;2.10;;
2724;SDS011;1370;52.596;13.112;2023-01-28T15:42:00;2.80;;;1.97;;
2724;SDS011;1370;52.596;13.112;2023-01-28T15:44:31;2.20;;;2.03;;
2724;SDS011;1370;52.596;13.112;2023-01-28T15:46:58;4.00;;;3.70;;
2724;SDS011;1370;52.596;13.112;2023-01-28T15:49:26;3.73;;;2.40;;
2724;SDS011;1370;52.596;13.112;2023-01-28T15:51:54;8.10;;;2.43;;
2724;SDS011;1370;52.596;13.112;2023-01-28T15:54:20;2.70;;;2.50;;
2724;SDS011;1370;52.596;13.112;2023-01-28T15:56:45;3.33;;;3.03;;
2724;SDS011;1370;52.596;13.112;2023-01-28T15:59:25;2.97;;;2.67;;
2724;SDS011;1370;52.596;13.112;2023-01-28T16:02:08;3.33;;;2.60;;
2724;SDS011;1370;52.596;13.112;2023-01-28T16:04:42;2.70;;;2.47;;
2724;SDS011;1370;52.596;13.112;2023-01-28T16:07:08;3.23;;;3.03;;
2724;SDS011;1370;52.596;13.112;2023-01-28T16:09:33;2.97;;;2.78;;
2724;SDS011;1370;52.596;13.112;2023-01-28T16:12:03;3.03;;;2.83;;
2724;SDS011;1370;52.596;13.112;2023-01-28T16:17:39;3.63;;;3.33;;
2724;SDS011;1370;52.596;13.112;2023-01-28T16:20:18;2.60;;;2.40;;
2724;SDS011;1370;52.596;13.112;2023-01-28T16:22:45;3.83;;;2.93;;
2724;SDS011;1370;52.596;13.112;2023-01-28T16:27:45;4.73;;;2.97;;
2724;SDS011;1370;52.596;13.112;2023-01-28T16:30:10;2.93;;;2.73;;